createdAt,value
2023-01-10T00:02:41.804Z,4.02
2023-01-10T00:07:43.505Z,4.08
2023-01-10T00:13:03.523Z,4.16
2023-01-10T00:18:05.374Z,4.16
2023-01-10T00:23:06.848Z,3.98
2023-01-10T00:28:20.812Z,3.82
2023-01-10T00:33:22.793Z,3.80
2023-01-10T00:38:24.567Z,3.86
2023-01-10T00:43:44.519Z,3.87
2023-01-10T00:48:45.973Z,3.92
2023-01-10T00:53:47.503Z,3.84
2023-01-10T00:58:49.194Z,3.75
2023-01-10T01:03:50.621Z,3.69
2023-01-10T01:08:52.138Z,3.68
2023-01-10T01:13:53.674Z,3.73
2023-01-10T01:18:55.187Z,3.64
2023-01-10T01:23:57.179Z,3.63
2023-01-10T01:28:58.605Z,3.76
2023-01-10T01:34:00.104Z,3.91
2023-01-10T01:39:01.634Z,3.96
2023-01-10T01:44:13.965Z,3.95
2023-01-10T01:49:21.987Z,4.06
2023-01-10T01:54:23.598Z,3.97
2023-01-10T01:59:31.751Z,4.11
2023-01-10T02:04:41.208Z,4.14
2023-01-10T02:09:51.470Z,4.27
2023-01-10T02:14:54.273Z,4.32
2023-01-10T02:20:03.157Z,4.20
2023-01-10T02:25:26.427Z,4.17
2023-01-10T02:30:33.689Z,4.36
2023-01-10T02:35:56.715Z,4.43
2023-01-10T02:41:25.470Z,4.46
2023-01-10T02:46:30.192Z,4.44
2023-01-10T02:51:33.596Z,4.30
2023-01-10T02:57:08.854Z,4.28
2023-01-10T03:02:47.579Z,4.29
2023-01-10T03:08:22.909Z,4.33
2023-01-10T03:13:53.528Z,4.22
2023-01-10T03:19:06.345Z,4.15
2023-01-10T03:24:15.529Z,3.95
2023-01-10T03:29:32.124Z,3.90
2023-01-10T03:34:34.698Z,3.76
2023-01-10T03:39:42.228Z,3.71
2023-01-10T03:44:58.291Z,3.51
2023-01-10T03:50:06.570Z,3.49
2023-01-10T03:55:12.329Z,3.46
2023-01-10T04:00:16.508Z,3.45
2023-01-10T04:05:18.030Z,3.48
2023-01-10T04:10:21.107Z,3.51
2023-01-10T04:15:22.593Z,3.54
2023-01-10T04:20:27.232Z,3.61
2023-01-10T04:25:28.629Z,3.61
2023-01-10T04:30:30.150Z,3.73
2023-01-10T04:35:31.638Z,3.93
2023-01-10T04:40:33.120Z,3.89
2023-01-10T04:45:34.668Z,3.91
2023-01-10T04:50:36.200Z,3.84
2023-01-10T04:55:37.664Z,3.86
2023-01-10T05:00:39.404Z,3.78
2023-01-10T05:05:40.837Z,3.76
2023-01-10T05:10:42.363Z,3.64
2023-01-10T05:15:43.889Z,3.63
2023-01-10T05:20:45.403Z,3.71
2023-01-10T05:25:46.870Z,3.69
2023-01-10T05:30:49.084Z,3.73
2023-01-10T05:35:50.583Z,3.66
2023-01-10T05:40:56.362Z,3.63
2023-01-10T05:45:57.920Z,3.54
2023-01-10T05:50:59.454Z,3.58
2023-01-10T05:56:02.342Z,3.63
2023-01-10T06:01:04.023Z,3.69
2023-01-10T06:06:05.816Z,3.64
2023-01-10T06:11:07.710Z,3.68
2023-01-10T06:16:09.608Z,3.69
2023-01-10T06:21:11.103Z,3.70
2023-01-10T06:26:12.827Z,3.81
2023-01-10T06:31:14.963Z,3.69
2023-01-10T06:36:16.681Z,3.51
2023-01-10T06:41:18.157Z,3.61
2023-01-10T06:46:20.146Z,3.61
2023-01-10T06:51:21.710Z,3.59
2023-01-10T06:56:23.261Z,3.46
2023-01-10T07:01:24.772Z,3.39
2023-01-10T07:06:26.278Z,3.28
2023-01-10T07:11:27.746Z,3.19
2023-01-10T07:16:29.415Z,3.21
2023-01-10T07:21:30.936Z,3.20
2023-01-10T07:26:32.376Z,3.23
2023-01-10T07:31:33.952Z,3.32
2023-01-10T07:36:39.206Z,3.20
2023-01-10T07:41:40.955Z,2.98
2023-01-10T07:46:43.085Z,2.95
2023-01-10T07:51:44.539Z,2.95
2023-01-10T07:56:47.288Z,2.91
2023-01-10T08:01:48.836Z,2.80
2023-01-10T08:06:51.064Z,2.78
2023-01-10T08:11:52.556Z,2.77
2023-01-10T08:16:54.143Z,2.74
2023-01-10T08:21:55.573Z,2.73
2023-01-10T08:27:00.376Z,2.70
2023-01-10T08:32:02.113Z,2.77
2023-01-10T08:37:04.256Z,2.89
2023-01-10T08:42:05.967Z,2.97
2023-01-10T08:47:07.429Z,3.04
2023-01-10T08:52:08.894Z,3.25
2023-01-10T08:57:10.427Z,3.49
2023-01-10T09:02:15.058Z,3.43
2023-01-10T09:07:16.537Z,3.56
2023-01-10T09:12:36.389Z,3.82
2023-01-10T09:17:37.926Z,3.86
2023-01-10T09:22:39.834Z,3.87
2023-01-10T09:27:41.482Z,3.81
2023-01-10T09:32:42.957Z,3.83
2023-01-10T09:37:44.438Z,3.93
2023-01-10T09:43:19.061Z,4.09
2023-01-10T09:48:46.040Z,4.37
2023-01-10T09:53:50.596Z,4.40
2023-01-10T09:58:52.786Z,4.36
2023-01-10T10:04:42.255Z,4.36
2023-01-10T10:09:43.775Z,4.42
2023-01-10T10:15:19.600Z,4.55
2023-01-10T10:20:33.256Z,4.65
2023-01-10T10:25:56.823Z,4.72
2023-01-10T10:31:14.995Z,4.72
2023-01-10T10:36:23.834Z,4.79
2023-01-10T10:41:46.218Z,4.82
2023-01-10T10:46:47.883Z,4.93
2023-01-10T10:51:53.797Z,4.97
2023-01-10T10:56:56.234Z,5.04
2023-01-10T11:01:58.153Z,5.09
2023-01-10T11:07:00.828Z,5.14
2023-01-10T11:12:03.970Z,5.17
2023-01-10T11:17:25.662Z,5.20
2023-01-10T11:22:30.428Z,5.20
2023-01-10T11:27:37.556Z,5.35
2023-01-10T11:32:48.210Z,5.38
2023-01-10T11:38:15.603Z,5.36
2023-01-10T11:43:38.436Z,5.38
2023-01-10T11:49:05.143Z,5.46
2023-01-10T11:54:13.004Z,5.59
2023-01-10T11:59:17.919Z,5.61
2023-01-10T12:04:21.213Z,5.71
2023-01-10T12:09:35.083Z,5.71
2023-01-10T12:14:36.577Z,5.68
2023-01-10T12:19:38.047Z,5.80
2023-01-10T12:24:44.115Z,5.76
2023-01-10T12:30:17.602Z,5.82
2023-01-10T12:35:27.740Z,5.72
2023-01-10T12:40:45.145Z,5.68
2023-01-10T12:46:01.142Z,5.75
2023-01-10T12:51:15.168Z,5.65
2023-01-10T12:56:19.191Z,5.75
2023-01-10T13:01:35.167Z,5.77
2023-01-10T13:06:39.780Z,5.83
2023-01-10T13:11:45.983Z,5.85
2023-01-10T13:16:56.123Z,5.79
2023-01-10T13:22:21.108Z,5.80
2023-01-10T13:27:25.299Z,5.70
2023-01-10T13:32:33.471Z,5.82
2023-01-10T13:37:41.268Z,5.87
2023-01-10T13:43:01.570Z,5.84
2023-01-10T13:48:04.612Z,5.86
2023-01-10T13:53:09.201Z,5.88
2023-01-10T13:58:13.293Z,5.82
2023-01-10T14:03:50.288Z,5.83
2023-01-10T14:08:54.845Z,5.78
2023-01-10T14:14:00.594Z,5.73
2023-01-10T14:19:05.657Z,5.74
2023-01-10T14:24:23.439Z,5.73
2023-01-10T14:29:31.876Z,5.79
2023-01-10T14:34:37.324Z,5.80
2023-01-10T14:39:42.175Z,5.83
2023-01-10T14:44:51.072Z,5.72
2023-01-10T14:49:52.574Z,5.62
2023-01-10T14:55:24.592Z,5.58
2023-01-10T15:00:36.493Z,5.50
2023-01-10T15:05:46.156Z,5.44
2023-01-10T15:10:52.137Z,5.44
2023-01-10T15:15:54.547Z,5.36
2023-01-10T15:20:57.993Z,5.19
2023-01-10T15:26:03.007Z,5.10
2023-01-10T15:31:05.883Z,5.15
2023-01-10T15:36:14.192Z,5.09
2023-01-10T15:41:19.569Z,5.05
2023-01-10T15:46:28.128Z,4.95
2023-01-10T15:51:37.666Z,4.83
2023-01-10T15:57:06.560Z,4.81
2023-01-10T16:02:29.768Z,4.83
2023-01-10T16:07:34.373Z,4.75
2023-01-10T16:12:59.283Z,4.81
2023-01-10T16:18:01.128Z,4.77
2023-01-10T16:23:05.053Z,4.75
2023-01-10T16:28:06.516Z,4.81
2023-01-10T16:33:16.093Z,4.95
2023-01-10T16:38:18.828Z,4.93
2023-01-10T16:43:25.783Z,4.85
2023-01-10T16:48:29.283Z,4.87
2023-01-10T16:53:30.847Z,4.86
2023-01-10T16:58:32.378Z,4.79
2023-01-10T17:03:37.556Z,4.77
2023-01-10T17:08:39.129Z,4.66
2023-01-10T17:13:43.325Z,4.72
2023-01-10T17:18:44.863Z,4.65
2023-01-10T17:23:47.086Z,4.69
2023-01-10T17:28:49.682Z,4.74
2023-01-10T17:33:51.351Z,4.64
2023-01-10T17:38:52.845Z,4.63
2023-01-10T17:43:54.392Z,4.61
2023-01-10T17:48:55.910Z,4.63
2023-01-10T17:53:58.891Z,4.68
2023-01-10T17:59:00.293Z,4.59
2023-01-10T18:04:01.814Z,4.58
2023-01-10T18:09:04.300Z,4.51
2023-01-10T18:14:41.018Z,4.54
2023-01-10T18:19:42.567Z,4.53
2023-01-10T18:24:45.257Z,4.58
2023-01-10T18:29:46.963Z,4.50
2023-01-10T18:34:48.796Z,4.55
2023-01-10T18:39:50.348Z,4.63
2023-01-10T18:44:51.831Z,4.57
2023-01-10T18:49:53.379Z,4.54
2023-01-10T18:54:55.023Z,4.60
2023-01-10T18:59:56.459Z,4.61
2023-01-10T19:04:57.934Z,4.62
2023-01-10T19:09:59.462Z,4.69
2023-01-10T19:15:01.084Z,4.68
2023-01-10T19:20:02.794Z,4.68
2023-01-10T19:25:04.843Z,4.74
2023-01-10T19:30:07.128Z,4.82
2023-01-10T19:35:09.043Z,4.79
2023-01-10T19:40:12.246Z,4.89
2023-01-10T19:45:13.811Z,4.94
2023-01-10T19:50:15.613Z,4.89
2023-01-10T19:55:17.045Z,4.93
2023-01-10T20:00:18.861Z,4.89
2023-01-10T20:05:20.385Z,4.82
2023-01-10T20:10:21.974Z,4.74
2023-01-10T20:15:23.851Z,4.72
2023-01-10T20:20:25.416Z,4.62
2023-01-10T20:25:26.996Z,4.49
2023-01-10T20:30:28.498Z,4.40
2023-01-10T20:35:30.123Z,4.34
2023-01-10T20:40:31.627Z,4.32
2023-01-10T20:45:34.384Z,4.24
2023-01-10T20:50:35.826Z,4.21
2023-01-10T20:55:41.439Z,4.09
2023-01-10T21:00:42.950Z,4.12
2023-01-10T21:05:52.083Z,4.05
2023-01-10T21:10:53.530Z,4.02
2023-01-10T21:15:56.895Z,3.99
2023-01-10T21:20:59.940Z,4.07
2023-01-10T21:26:04.582Z,4.03
2023-01-10T21:31:06.370Z,3.97
2023-01-10T21:36:08.556Z,4.11
2023-01-10T21:41:14.735Z,4.09
2023-01-10T21:46:16.429Z,4.13
2023-01-10T21:51:17.854Z,4.05
2023-01-10T21:56:19.300Z,4.07
2023-01-10T22:01:20.768Z,4.10
2023-01-10T22:06:22.426Z,4.14
2023-01-10T22:11:24.027Z,4.03
2023-01-10T22:16:25.499Z,4.03
2023-01-10T22:21:27.024Z,4.06
2023-01-10T22:26:28.498Z,4.01
2023-01-10T22:31:30.117Z,4.04
2023-01-10T22:36:31.592Z,4.08
2023-01-10T22:41:33.807Z,4.11
2023-01-10T22:46:35.263Z,4.07
2023-01-10T22:51:37.533Z,4.11
2023-01-10T22:56:39.487Z,4.12
2023-01-10T23:01:41.911Z,4.20
2023-01-10T23:06:43.601Z,4.16
2023-01-10T23:11:45.041Z,4.19
2023-01-10T23:16:46.588Z,4.20
2023-01-10T23:21:48.131Z,4.14
2023-01-10T23:26:50.585Z,4.19
2023-01-10T23:31:52.034Z,4.17
2023-01-10T23:36:53.502Z,4.19
2023-01-10T23:41:55.010Z,4.18
2023-01-10T23:46:56.431Z,4.24
2023-01-10T23:51:57.850Z,4.30
2023-01-10T23:56:59.933Z,4.35
